sensor_id;sensor_type;location;lat;lon;timestamp;pressure;altitude;pressure_sealevel;temperature;humidity
33153;BME280;19509;43.862;26.176;2022-11-20T00:00:39;100303.16;;;10.31;99.24
33153;BME280;19509;43.862;26.176;2022-11-20T00:03:05;100300.06;;;10.27;99.17
33153;BME280;19509;43.862;26.176;2022-11-20T00:05:32;100295.91;;;10.25;99.28
33153;BME280;19509;43.862;26.176;2022-11-20T00:07:58;100298.81;;;10.30;99.48
33153;BME280;19509;43.862;26.176;2022-11-20T00:10:23;100293.88;;;10.27;99.54
33153;BME280;19509;43.862;26.176;2022-11-20T00:12:49;100299.84;;;10.29;99.30
33153;BME280;19509;43.862;26.176;2022-11-20T00:15:14;100298.34;;;10.39;99.64
33153;BME280;19509;43.862;26.176;2022-11-20T00:17:40;100307.44;;;10.38;98.78
33153;BME280;19509;43.862;26.176;2022-11-20T00:20:06;100316.56;;;10.37;99.98
33153;BME280;19509;43.862;26.176;2022-11-20T00:22:31;100308.91;;;10.34;99.30
33153;BME280;19509;43.862;26.176;2022-11-20T00:24:57;100318.84;;;10.34;99.46
33153;BME280;19509;43.862;26.176;2022-11-20T00:27:23;100294.41;;;10.35;99.73
33153;BME280;19509;43.862;26.176;2022-11-20T00:29:48;100292.63;;;10.29;99.85
33153;BME280;19509;43.862;26.176;2022-11-20T00:32:13;100301.94;;;10.27;99.94
33153;BME280;19509;43.862;26.176;2022-11-20T00:34:39;100316.38;;;10.32;100.00
33153;BME280;19509;43.862;26.176;2022-11-20T00:37:04;100311.44;;;10.29;99.91
33153;BME280;19509;43.862;26.176;2022-11-20T00:39:29;100299.41;;;10.25;99.84
33153;BME280;19509;43.862;26.176;2022-11-20T00:41:55;100303.81;;;10.26;100.00
33153;BME280;19509;43.862;26.176;2022-11-20T00:44:20;100306.06;;;10.29;100.00
33153;BME280;19509;43.862;26.176;2022-11-20T00:46:46;100317.00;;;10.34;100.00
33153;BME280;19509;43.862;26.176;2022-11-20T00:49:11;100302.28;;;10.37;100.00
33153;BME280;19509;43.862;26.176;2022-11-20T00:51:36;100308.06;;;10.40;100.00
33153;BME280;19509;43.862;26.176;2022-11-20T00:54:02;100304.31;;;10.41;100.00
33153;BME280;19509;43.862;26.176;2022-11-20T00:56:28;100300.63;;;10.36;100.00
33153;BME280;19509;43.862;26.176;2022-11-20T00:58:53;100309.50;;;10.43;100.00
33153;BME280;19509;43.862;26.176;2022-11-20T01:01:21;100309.66;;;10.48;100.00
33153;BME280;19509;43.862;26.176;2022-11-20T01:03:50;100298.75;;;10.43;100.00
33153;BME280;19509;43.862;26.176;2022-11-20T01:06:19;100301.19;;;10.45;100.00
33153;BME280;19509;43.862;26.176;2022-11-20T01:08:45;100303.22;;;10.49;100.00
33153;BME280;19509;43.862;26.176;2022-11-20T01:11:13;100302.66;;;10.47;100.00
33153;BME280;19509;43.862;26.176;2022-11-20T01:13:39;100283.41;;;10.44;100.00
33153;BME280;19509;43.862;26.176;2022-11-20T01:16:16;100286.69;;;10.46;100.00
33153;BME280;19509;43.862;26.176;2022-11-20T01:18:44;100265.59;;;10.42;100.00
33153;BME280;19509;43.862;26.176;2022-11-20T01:21:15;100258.41;;;10.43;100.00
33153;BME280;19509;43.862;26.176;2022-11-20T01:23:42;100263.78;;;10.43;100.00
33153;BME280;19509;43.862;26.176;2022-11-20T01:26:14;100249.88;;;10.46;100.00
33153;BME280;19509;43.862;26.176;2022-11-20T01:28:40;100238.94;;;10.41;100.00
33153;BME280;19509;43.862;26.176;2022-11-20T01:31:29;100243.88;;;10.44;100.00
33153;BME280;19509;43.862;26.176;2022-11-20T01:33:57;100247.41;;;10.45;100.00
33153;BME280;19509;43.862;26.176;2022-11-20T01:36:26;100236.81;;;10.50;100.00
33153;BME280;19509;43.862;26.176;2022-11-20T01:38:54;100240.53;;;10.49;100.00
33153;BME280;19509;43.862;26.176;2022-11-20T01:41:21;100240.34;;;10.50;100.00
33153;BME280;19509;43.862;26.176;2022-11-20T01:44:05;100239.06;;;10.53;100.00
33153;BME280;19509;43.862;26.176;2022-11-20T01:46:33;100228.09;;;10.54;100.00
33153;BME280;19509;43.862;26.176;2022-11-20T01:49:08;100227.84;;;10.56;100.00
33153;BME280;19509;43.862;26.176;2022-11-20T01:51:45;100243.78;;;10.57;100.00
33153;BME280;19509;43.862;26.176;2022-11-20T01:54:21;100234.47;;;10.60;100.00
33153;BME280;19509;43.862;26.176;2022-11-20T01:56:51;100238.81;;;10.61;100.00
33153;BME280;19509;43.862;26.176;2022-11-20T01:59:21;100239.22;;;10.58;100.00
33153;BME280;19509;43.862;26.176;2022-11-20T02:01:49;100248.34;;;10.57;100.00
33153;BME280;19509;43.862;26.176;2022-11-20T02:04:15;100245.81;;;10.62;100.00
33153;BME280;19509;43.862;26.176;2022-11-20T02:06:55;100251.44;;;10.60;100.00
33153;BME280;19509;43.862;26.176;2022-11-20T02:09:22;100243.75;;;10.64;100.00
33153;BME280;19509;43.862;26.176;2022-11-20T02:11:47;100245.19;;;10.67;100.00
33153;BME280;19509;43.862;26.176;2022-11-20T02:14:14;100237.09;;;10.67;100.00
33153;BME280;19509;43.862;26.176;2022-11-20T02:16:44;100241.63;;;10.66;100.00
33153;BME280;19509;43.862;26.176;2022-11-20T02:19:31;100226.97;;;10.62;100.00
33153;BME280;19509;43.862;26.176;2022-11-20T02:22:07;100224.19;;;10.50;100.00
33153;BME280;19509;43.862;26.176;2022-11-20T02:24:36;100230.47;;;10.37;100.00
33153;BME280;19509;43.862;26.176;2022-11-20T02:27:14;100218.56;;;10.20;100.00
33153;BME280;19509;43.862;26.176;2022-11-20T02:29:54;100217.13;;;10.17;100.00
33153;BME280;19509;43.862;26.176;2022-11-20T02:32:41;100213.91;;;10.09;100.00
33153;BME280;19509;43.862;26.176;2022-11-20T02:37:58;100219.88;;;10.11;100.00
33153;BME280;19509;43.862;26.176;2022-11-20T02:40:24;100220.91;;;10.10;100.00
33153;BME280;19509;43.862;26.176;2022-11-20T02:42:54;100208.94;;;10.06;100.00
33153;BME280;19509;43.862;26.176;2022-11-20T02:45:20;100209.78;;;10.06;100.00
33153;BME280;19509;43.862;26.176;2022-11-20T02:47:46;100213.69;;;10.04;100.00
33153;BME280;19509;43.862;26.176;2022-11-20T02:50:11;100206.88;;;10.01;100.00
33153;BME280;19509;43.862;26.176;2022-11-20T02:52:37;100211.44;;;10.01;100.00
33153;BME280;19509;43.862;26.176;2022-11-20T02:55:03;100212.09;;;9.96;100.00
33153;BME280;19509;43.862;26.176;2022-11-20T02:57:28;100204.28;;;9.88;100.00
33153;BME280;19509;43.862;26.176;2022-11-20T02:59:54;100204.50;;;9.86;100.00
33153;BME280;19509;43.862;26.176;2022-11-20T03:02:19;100194.97;;;9.45;100.00
33153;BME280;19509;43.862;26.176;2022-11-20T03:04:45;100207.25;;;9.21;100.00
33153;BME280;19509;43.862;26.176;2022-11-20T03:07:11;100194.88;;;9.07;100.00
33153;BME280;19509;43.862;26.176;2022-11-20T03:09:36;100205.41;;;8.95;100.00
33153;BME280;19509;43.862;26.176;2022-11-20T03:12:02;100196.56;;;8.82;100.00
33153;BME280;19509;43.862;26.176;2022-11-20T03:14:27;100194.94;;;8.74;100.00
33153;BME280;19509;43.862;26.176;2022-11-20T03:16:53;100200.09;;;8.69;100.00
33153;BME280;19509;43.862;26.176;2022-11-20T03:19:18;100192.44;;;8.59;100.00
33153;BME280;19509;43.862;26.176;2022-11-20T03:21:43;100193.47;;;8.51;100.00
33153;BME280;19509;43.862;26.176;2022-11-20T03:24:09;100205.25;;;8.44;100.00
33153;BME280;19509;43.862;26.176;2022-11-20T03:26:34;100203.78;;;8.41;100.00
33153;BME280;19509;43.862;26.176;2022-11-20T03:29:02;100209.13;;;8.35;100.00
33153;BME280;19509;43.862;26.176;2022-11-20T03:31:33;100202.94;;;8.27;100.00
33153;BME280;19509;43.862;26.176;2022-11-20T03:33:59;100204.16;;;8.25;100.00
33153;BME280;19509;43.862;26.176;2022-11-20T03:36:26;100214.44;;;8.15;100.00
33153;BME280;19509;43.862;26.176;2022-11-20T03:38:54;100206.84;;;8.05;100.00
33153;BME280;19509;43.862;26.176;2022-11-20T03:41:22;100211.13;;;7.99;100.00
33153;BME280;19509;43.862;26.176;2022-11-20T03:43:52;100218.38;;;8.05;100.00
33153;BME280;19509;43.862;26.176;2022-11-20T03:46:19;100210.91;;;7.94;100.00
33153;BME280;19509;43.862;26.176;2022-11-20T03:48:44;100212.13;;;7.85;100.00
33153;BME280;19509;43.862;26.176;2022-11-20T03:53:40;100220.72;;;7.74;100.00
33153;BME280;19509;43.862;26.176;2022-11-20T03:56:07;100223.34;;;7.61;100.00
33153;BME280;19509;43.862;26.176;2022-11-20T03:58:36;100230.97;;;7.57;100.00
33153;BME280;19509;43.862;26.176;2022-11-20T04:03:33;100229.06;;;7.44;100.00
33153;BME280;19509;43.862;26.176;2022-11-20T04:06:08;100233.56;;;7.37;100.00
33153;BME280;19509;43.862;26.176;2022-11-20T04:08:33;100237.47;;;7.34;100.00
33153;BME280;19509;43.862;26.176;2022-11-20T04:11:32;100233.75;;;7.35;100.00
33153;BME280;19509;43.862;26.176;2022-11-20T04:14:03;100235.13;;;7.25;100.00
33153;BME280;19509;43.862;26.176;2022-11-20T04:16:30;100222.59;;;7.25;100.00
33153;BME280;19509;43.862;26.176;2022-11-20T04:18:58;100232.25;;;7.26;100.00
33153;BME280;19509;43.862;26.176;2022-11-20T04:21:25;100246.66;;;7.25;100.00
33153;BME280;19509;43.862;26.176;2022-11-20T04:23:52;100254.91;;;7.24;100.00
33153;BME280;19509;43.862;26.176;2022-11-20T04:26:18;100258.38;;;7.18;100.00
33153;BME280;19509;43.862;26.176;2022-11-20T04:28:44;100256.25;;;7.13;100.00
33153;BME280;19509;43.862;26.176;2022-11-20T04:31:11;100259.31;;;7.03;100.00
33153;BME280;19509;43.862;26.176;2022-11-20T04:33:38;100270.81;;;7.04;100.00
33153;BME280;19509;43.862;26.176;2022-11-20T04:38:31;100268.94;;;6.98;100.00
33153;BME280;19509;43.862;26.176;2022-11-20T04:41:02;100258.22;;;6.98;100.00
33153;BME280;19509;43.862;26.176;2022-11-20T04:43:28;100260.91;;;6.98;100.00
33153;BME280;19509;43.862;26.176;2022-11-20T04:45:55;100260.03;;;6.91;100.00
33153;BME280;19509;43.862;26.176;2022-11-20T04:48:21;100261.22;;;6.88;100.00
33153;BME280;19509;43.862;26.176;2022-11-20T04:50:46;100250.09;;;6.84;100.00
33153;BME280;19509;43.862;26.176;2022-11-20T04:53:12;100253.75;;;6.77;100.00
33153;BME280;19509;43.862;26.176;2022-11-20T04:55:38;100261.19;;;6.81;100.00
33153;BME280;19509;43.862;26.176;2022-11-20T04:58:03;100255.44;;;6.84;100.00
33153;BME280;19509;43.862;26.176;2022-11-20T05:00:29;100257.25;;;6.77;100.00
33153;BME280;19509;43.862;26.176;2022-11-20T05:02:54;100249.41;;;6.76;100.00
33153;BME280;19509;43.862;26.176;2022-11-20T05:05:20;100255.22;;;6.79;100.00
33153;BME280;19509;43.862;26.176;2022-11-20T05:07:45;100253.16;;;6.81;100.00
33153;BME280;19509;43.862;26.176;2022-11-20T05:10:10;100247.81;;;6.81;100.00
33153;BME280;19509;43.862;26.176;2022-11-20T05:12:36;100255.81;;;6.81;100.00
33153;BME280;19509;43.862;26.176;2022-11-20T05:15:01;100249.41;;;6.76;100.00
33153;BME280;19509;43.862;26.176;2022-11-20T05:17:27;100249.16;;;6.71;100.00
33153;BME280;19509;43.862;26.176;2022-11-20T05:19:52;100248.91;;;6.66;100.00
33153;BME280;19509;43.862;26.176;2022-11-20T05:22:17;100243.25;;;6.54;100.00
33153;BME280;19509;43.862;26.176;2022-11-20T05:24:43;100249.88;;;6.58;100.00
33153;BME280;19509;43.862;26.176;2022-11-20T05:27:09;100247.91;;;6.67;100.00
33153;BME280;19509;43.862;26.176;2022-11-20T05:29:34;100255.66;;;6.61;100.00
33153;BME280;19509;43.862;26.176;2022-11-20T05:31:59;100249.38;;;6.69;100.00
33153;BME280;19509;43.862;26.176;2022-11-20T05:34:25;100242.63;;;6.73;100.00
33153;BME280;19509;43.862;26.176;2022-11-20T05:36:50;100238.63;;;6.62;100.00
33153;BME280;19509;43.862;26.176;2022-11-20T05:39:16;100248.13;;;6.72;100.00
33153;BME280;19509;43.862;26.176;2022-11-20T05:41:41;100250.63;;;6.73;100.00
33153;BME280;19509;43.862;26.176;2022-11-20T05:44:07;100247.75;;;6.75;100.00
33153;BME280;19509;43.862;26.176;2022-11-20T05:46:32;100256.16;;;6.72;100.00
33153;BME280;19509;43.862;26.176;2022-11-20T05:48:58;100253.09;;;6.75;100.00
33153;BME280;19509;43.862;26.176;2022-11-20T05:51:25;100264.81;;;6.74;100.00
33153;BME280;19509;43.862;26.176;2022-11-20T05:53:50;100281.75;;;6.81;100.00
33153;BME280;19509;43.862;26.176;2022-11-20T05:56:18;100329.41;;;6.71;100.00
33153;BME280;19509;43.862;26.176;2022-11-20T05:58:44;100350.28;;;6.60;100.00
33153;BME280;19509;43.862;26.176;2022-11-20T06:03:41;100331.50;;;6.54;100.00
33153;BME280;19509;43.862;26.176;2022-11-20T06:06:08;100339.22;;;6.49;100.00
33153;BME280;19509;43.862;26.176;2022-11-20T06:08:34;100326.19;;;6.39;100.00
33153;BME280;19509;43.862;26.176;2022-11-20T06:11:04;100332.38;;;6.39;100.00
33153;BME280;19509;43.862;26.176;2022-11-20T06:13:30;100342.41;;;6.37;100.00
33153;BME280;19509;43.862;26.176;2022-11-20T06:15:56;100356.81;;;6.36;100.00
33153;BME280;19509;43.862;26.176;2022-11-20T06:18:21;100361.69;;;6.33;100.00
33153;BME280;19509;43.862;26.176;2022-11-20T06:20:46;100365.00;;;6.35;100.00
33153;BME280;19509;43.862;26.176;2022-11-20T06:23:12;100371.44;;;6.40;100.00
33153;BME280;19509;43.862;26.176;2022-11-20T06:25:42;100356.59;;;6.38;100.00
33153;BME280;19509;43.862;26.176;2022-11-20T06:28:08;100361.88;;;6.31;100.00
33153;BME280;19509;43.862;26.176;2022-11-20T06:30:34;100377.53;;;6.34;100.00
33153;BME280;19509;43.862;26.176;2022-11-20T06:32:59;100394.59;;;6.33;100.00
33153;BME280;19509;43.862;26.176;2022-11-20T06:35:25;100394.06;;;6.23;100.00
33153;BME280;19509;43.862;26.176;2022-11-20T06:37:50;100402.56;;;6.12;100.00
33153;BME280;19509;43.862;26.176;2022-11-20T06:40:15;100414.25;;;6.11;100.00
33153;BME280;19509;43.862;26.176;2022-11-20T06:42:41;100421.78;;;6.07;100.00
33153;BME280;19509;43.862;26.176;2022-11-20T06:45:07;100428.81;;;6.08;100.00
33153;BME280;19509;43.862;26.176;2022-11-20T06:47:33;100428.63;;;6.10;100.00
33153;BME280;19509;43.862;26.176;2022-11-20T06:49:59;100442.34;;;6.07;100.00
33153;BME280;19509;43.862;26.176;2022-11-20T06:52:24;100453.00;;;5.92;100.00
33153;BME280;19509;43.862;26.176;2022-11-20T06:54:49;100448.03;;;5.89;100.00
33153;BME280;19509;43.862;26.176;2022-11-20T06:57:15;100453.97;;;5.99;100.00
33153;BME280;19509;43.862;26.176;2022-11-20T06:59:40;100466.03;;;5.95;100.00
33153;BME280;19509;43.862;26.176;2022-11-20T07:02:09;100486.50;;;5.80;100.00
33153;BME280;19509;43.862;26.176;2022-11-20T07:04:35;100491.78;;;5.88;100.00
33153;BME280;19509;43.862;26.176;2022-11-20T07:07:01;100503.66;;;5.85;100.00
33153;BME280;19509;43.862;26.176;2022-11-20T07:09:26;100510.84;;;5.85;100.00
33153;BME280;19509;43.862;26.176;2022-11-20T07:11:51;100522.34;;;5.85;100.00
33153;BME280;19509;43.862;26.176;2022-11-20T07:14:17;100514.78;;;5.89;100.00
33153;BME280;19509;43.862;26.176;2022-11-20T07:16:42;100540.47;;;5.98;100.00
33153;BME280;19509;43.862;26.176;2022-11-20T07:19:08;100544.47;;;5.94;100.00
33153;BME280;19509;43.862;26.176;2022-11-20T07:21:33;100533.78;;;5.94;100.00
33153;BME280;19509;43.862;26.176;2022-11-20T07:23:58;100533.28;;;5.99;100.00
33153;BME280;19509;43.862;26.176;2022-11-20T07:26:24;100516.41;;;5.98;100.00
33153;BME280;19509;43.862;26.176;2022-11-20T07:28:49;100503.53;;;6.02;99.88
33153;BME280;19509;43.862;26.176;2022-11-20T07:31:14;100501.03;;;6.00;100.00
33153;BME280;19509;43.862;26.176;2022-11-20T07:33:40;100499.16;;;6.01;99.42
33153;BME280;19509;43.862;26.176;2022-11-20T07:36:05;100519.44;;;5.95;99.59
33153;BME280;19509;43.862;26.176;2022-11-20T07:38:31;100521.28;;;5.95;98.97
33153;BME280;19509;43.862;26.176;2022-11-20T07:40:57;100530.13;;;5.95;98.47
33153;BME280;19509;43.862;26.176;2022-11-20T07:43:28;100531.59;;;5.98;98.61
33153;BME280;19509;43.862;26.176;2022-11-20T07:45:58;100541.75;;;6.02;98.26
33153;BME280;19509;43.862;26.176;2022-11-20T07:48:24;100531.06;;;6.02;98.08
33153;BME280;19509;43.862;26.176;2022-11-20T07:50:53;100538.97;;;5.96;98.26
33153;BME280;19509;43.862;26.176;2022-11-20T07:53:18;100532.09;;;6.01;98.74
33153;BME280;19509;43.862;26.176;2022-11-20T07:55:46;100527.56;;;6.02;98.51
33153;BME280;19509;43.862;26.176;2022-11-20T07:58:11;100514.78;;;6.12;98.78
33153;BME280;19509;43.862;26.176;2022-11-20T08:00:37;100511.28;;;6.11;98.95
33153;BME280;19509;43.862;26.176;2022-11-20T08:03:04;100527.88;;;6.22;99.07
33153;BME280;19509;43.862;26.176;2022-11-20T08:05:29;100529.97;;;6.26;98.36
33153;BME280;19509;43.862;26.176;2022-11-20T08:07:55;100533.78;;;6.32;98.04
33153;BME280;19509;43.862;26.176;2022-11-20T08:10:20;100543.53;;;6.39;98.28
33153;BME280;19509;43.862;26.176;2022-11-20T08:12:48;100548.97;;;6.46;98.36
33153;BME280;19509;43.862;26.176;2022-11-20T08:15:32;100535.25;;;6.49;97.36
33153;BME280;19509;43.862;26.176;2022-11-20T08:18:09;100517.34;;;6.35;97.01
33153;BME280;19509;43.862;26.176;2022-11-20T08:20:36;100514.94;;;6.55;97.54
33153;BME280;19509;43.862;26.176;2022-11-20T08:23:04;100515.47;;;6.80;97.06
33153;BME280;19509;43.862;26.176;2022-11-20T08:25:31;100524.78;;;6.84;95.76
33153;BME280;19509;43.862;26.176;2022-11-20T08:28:02;100507.91;;;6.83;96.22
33153;BME280;19509;43.862;26.176;2022-11-20T08:30:28;100492.78;;;6.76;95.04
33153;BME280;19509;43.862;26.176;2022-11-20T08:32:54;100506.56;;;6.73;95.29
33153;BME280;19509;43.862;26.176;2022-11-20T08:35:21;100509.47;;;6.78;94.77
33153;BME280;19509;43.862;26.176;2022-11-20T08:37:47;100514.34;;;6.89;95.65
33153;BME280;19509;43.862;26.176;2022-11-20T08:40:13;100514.78;;;6.93;94.57
33153;BME280;19509;43.862;26.176;2022-11-20T08:42:49;100504.75;;;6.95;95.25
33153;BME280;19509;43.862;26.176;2022-11-20T08:45:15;100506.47;;;7.02;93.99
33153;BME280;19509;43.862;26.176;2022-11-20T08:47:41;100490.78;;;6.63;94.63
33153;BME280;19509;43.862;26.176;2022-11-20T08:50:08;100479.69;;;6.81;95.37
33153;BME280;19509;43.862;26.176;2022-11-20T08:52:34;100477.53;;;6.91;95.55
33153;BME280;19509;43.862;26.176;2022-11-20T08:54:59;100471.66;;;6.81;95.47
33153;BME280;19509;43.862;26.176;2022-11-20T08:57:25;100464.22;;;6.76;95.84
33153;BME280;19509;43.862;26.176;2022-11-20T08:59:50;100462.38;;;6.62;96.36
33153;BME280;19509;43.862;26.176;2022-11-20T09:02:15;100473.53;;;6.66;96.46
33153;BME280;19509;43.862;26.176;2022-11-20T09:04:41;100480.06;;;6.78;95.87
33153;BME280;19509;43.862;26.176;2022-11-20T09:07:06;100470.69;;;6.67;95.54
33153;BME280;19509;43.862;26.176;2022-11-20T09:09:32;100466.16;;;6.68;96.24
33153;BME280;19509;43.862;26.176;2022-11-20T09:11:58;100494.97;;;6.87;95.94
33153;BME280;19509;43.862;26.176;2022-11-20T09:14:23;100481.59;;;6.87;95.76
33153;BME280;19509;43.862;26.176;2022-11-20T09:16:54;100481.81;;;7.07;95.77
33153;BME280;19509;43.862;26.176;2022-11-20T09:19:20;100469.34;;;7.14;94.27
33153;BME280;19509;43.862;26.176;2022-11-20T09:21:45;100474.00;;;7.27;94.88
33153;BME280;19509;43.862;26.176;2022-11-20T09:24:11;100481.50;;;7.38;94.36
33153;BME280;19509;43.862;26.176;2022-11-20T09:26:36;100480.41;;;7.32;92.88
33153;BME280;19509;43.862;26.176;2022-11-20T09:29:02;100484.44;;;7.43;93.36
33153;BME280;19509;43.862;26.176;2022-11-20T09:31:27;100462.34;;;7.63;93.28
33153;BME280;19509;43.862;26.176;2022-11-20T09:33:52;100453.34;;;7.70;92.64
33153;BME280;19509;43.862;26.176;2022-11-20T09:36:18;100452.56;;;7.76;92.58
33153;BME280;19509;43.862;26.176;2022-11-20T09:38:47;100443.88;;;7.74;92.58
33153;BME280;19509;43.862;26.176;2022-11-20T09:47:08;100435.53;;;8.19;92.32
33153;BME280;19509;43.862;26.176;2022-11-20T09:52:29;100437.38;;;8.25;91.36
33153;BME280;19509;43.862;26.176;2022-11-20T09:54:57;100418.91;;;8.37;91.10
33153;BME280;19509;43.862;26.176;2022-11-20T09:57:34;100416.31;;;8.50;90.62
33153;BME280;19509;43.862;26.176;2022-11-20T10:00:04;100415.31;;;8.64;90.25
33153;BME280;19509;43.862;26.176;2022-11-20T10:16:00;100391.66;;;9.47;86.71
33153;BME280;19509;43.862;26.176;2022-11-20T10:30:12;100391.28;;;10.15;84.40
33153;BME280;19509;43.862;26.176;2022-11-20T10:32:41;100400.63;;;10.13;84.50
33153;BME280;19509;43.862;26.176;2022-11-20T10:35:25;100404.31;;;10.18;84.07
33153;BME280;19509;43.862;26.176;2022-11-20T10:37:58;100403.31;;;10.19;84.11
33153;BME280;19509;43.862;26.176;2022-11-20T10:40:38;100410.97;;;10.16;100.00
33153;BME280;19509;43.862;26.176;2022-11-20T10:43:32;63304.72;;;-144.22;63.38
33153;BME280;19509;43.862;26.176;2022-11-20T10:46:05;100436.31;;;9.55;85.91
33153;BME280;19509;43.862;26.176;2022-11-20T10:48:32;100436.91;;;9.31;87.41
33153;BME280;19509;43.862;26.176;2022-11-20T10:56:23;63304.72;;;8.95;100.00
33153;BME280;19509;43.862;26.176;2022-11-20T11:01:41;100448.47;;;9.18;89.63
33153;BME280;19509;43.862;26.176;2022-11-20T11:04:23;100454.00;;;9.03;90.46
33153;BME280;19509;43.862;26.176;2022-11-20T11:06:58;100455.69;;;9.11;89.66
33153;BME280;19509;43.862;26.176;2022-11-20T11:09:38;100462.47;;;8.93;88.71
33153;BME280;19509;43.862;26.176;2022-11-20T11:12:08;100473.84;;;8.47;89.78
33153;BME280;19509;43.862;26.176;2022-11-20T11:14:49;100471.78;;;8.15;92.24
33153;BME280;19509;43.862;26.176;2022-11-20T11:17:47;100471.13;;;8.06;92.69
33153;BME280;19509;43.862;26.176;2022-11-20T11:20:23;100472.09;;;7.98;92.01
33153;BME280;19509;43.862;26.176;2022-11-20T11:22:54;100463.66;;;8.01;92.48
33153;BME280;19509;43.862;26.176;2022-11-20T11:25:34;100461.59;;;8.03;92.46
33153;BME280;19509;43.862;26.176;2022-11-20T11:28:26;100460.16;;;8.01;92.66
33153;BME280;19509;43.862;26.176;2022-11-20T11:30:52;100467.81;;;7.76;93.35
33153;BME280;19509;43.862;26.176;2022-11-20T11:33:29;100458.22;;;7.88;92.65
33153;BME280;19509;43.862;26.176;2022-11-20T11:35:57;100472.44;;;7.89;92.72
33153;BME280;19509;43.862;26.176;2022-11-20T11:38:39;100476.34;;;7.86;93.34
33153;BME280;19509;43.862;26.176;2022-11-20T11:41:08;100463.84;;;8.00;92.58
33153;BME280;19509;43.862;26.176;2022-11-20T11:43:36;100464.53;;;8.09;92.50
33153;BME280;19509;43.862;26.176;2022-11-20T11:51:45;100467.41;;;8.07;91.67
33153;BME280;19509;43.862;26.176;2022-11-20T11:54:26;100471.59;;;8.16;90.88
33153;BME280;19509;43.862;26.176;2022-11-20T11:56:53;100471.50;;;8.03;91.29
33153;BME280;19509;43.862;26.176;2022-11-20T11:59:29;100480.19;;;7.77;92.97
33153;BME280;19509;43.862;26.176;2022-11-20T12:02:02;100469.56;;;7.90;92.38
33153;BME280;19509;43.862;26.176;2022-11-20T12:04:54;100476.94;;;7.81;93.07
33153;BME280;19509;43.862;26.176;2022-11-20T12:07:37;100483.78;;;7.91;93.61
33153;BME280;19509;43.862;26.176;2022-11-20T12:10:05;100494.75;;;7.96;93.32
33153;BME280;19509;43.862;26.176;2022-11-20T12:12:42;100486.75;;;8.02;93.05
33153;BME280;19509;43.862;26.176;2022-11-20T12:15:22;100492.38;;;8.14;93.24
33153;BME280;19509;43.862;26.176;2022-11-20T12:17:48;100494.41;;;8.05;93.10
33153;BME280;19509;43.862;26.176;2022-11-20T12:20:14;100485.91;;;7.95;92.91
33153;BME280;19509;43.862;26.176;2022-11-20T12:22:56;100474.03;;;8.11;93.44
33153;BME280;19509;43.862;26.176;2022-11-20T12:25:30;100467.47;;;8.20;92.60
33153;BME280;19509;43.862;26.176;2022-11-20T12:37:13;100439.97;;;8.40;91.99
33153;BME280;19509;43.862;26.176;2022-11-20T12:39:42;100458.31;;;8.08;92.15
33153;BME280;19509;43.862;26.176;2022-11-20T12:42:32;100459.47;;;8.27;92.85
33153;BME280;19509;43.862;26.176;2022-11-20T12:45:51;100480.97;;;8.34;92.53
33153;BME280;19509;43.862;26.176;2022-11-20T13:01:41;100461.66;;;8.45;92.44
33153;BME280;19509;43.862;26.176;2022-11-20T13:07:01;100463.91;;;8.41;92.60
33153;BME280;19509;43.862;26.176;2022-11-20T13:09:28;100455.72;;;8.49;92.49
33153;BME280;19509;43.862;26.176;2022-11-20T13:12:36;100455.31;;;8.52;92.49
33153;BME280;19509;43.862;26.176;2022-11-20T13:15:36;100460.88;;;8.51;92.90
33153;BME280;19509;43.862;26.176;2022-11-20T13:18:11;100445.81;;;8.50;91.57
33153;BME280;19509;43.862;26.176;2022-11-20T13:20:43;100439.78;;;8.41;92.37
33153;BME280;19509;43.862;26.176;2022-11-20T13:23:09;100439.53;;;8.36;92.68
33153;BME280;19509;43.862;26.176;2022-11-20T13:25:36;100442.84;;;8.38;92.82
33153;BME280;19509;43.862;26.176;2022-11-20T13:28:28;100422.84;;;8.41;93.02
33153;BME280;19509;43.862;26.176;2022-11-20T13:30:56;100420.13;;;8.34;92.79
33153;BME280;19509;43.862;26.176;2022-11-20T13:33:36;100414.94;;;8.26;93.26
33153;BME280;19509;43.862;26.176;2022-11-20T13:36:19;100422.59;;;8.29;94.10
33153;BME280;19509;43.862;26.176;2022-11-20T13:38:50;100434.31;;;8.28;94.33
33153;BME280;19509;43.862;26.176;2022-11-20T13:41:30;100437.50;;;8.38;93.69
33153;BME280;19509;43.862;26.176;2022-11-20T13:44:10;100434.81;;;8.38;93.78
33153;BME280;19509;43.862;26.176;2022-11-20T13:46:43;100431.72;;;8.41;92.93
33153;BME280;19509;43.862;26.176;2022-11-20T14:00:16;100426.22;;;8.49;93.37
33153;BME280;19509;43.862;26.176;2022-11-20T14:02:44;100419.38;;;8.47;93.15
33153;BME280;19509;43.862;26.176;2022-11-20T14:05:22;100418.72;;;8.38;92.88
33153;BME280;19509;43.862;26.176;2022-11-20T14:07:50;100409.78;;;8.31;93.79
33153;BME280;19509;43.862;26.176;2022-11-20T14:10:27;100401.22;;;8.49;93.94
33153;BME280;19509;43.862;26.176;2022-11-20T14:12:53;100418.06;;;8.36;94.37
33153;BME280;19509;43.862;26.176;2022-11-20T14:15:30;100426.78;;;8.45;94.66
33153;BME280;19509;43.862;26.176;2022-11-20T14:17:56;100428.69;;;8.51;94.78
33153;BME280;19509;43.862;26.176;2022-11-20T14:20:25;100403.09;;;8.55;93.94
33153;BME280;19509;43.862;26.176;2022-11-20T14:22:52;100388.63;;;8.43;93.53
33153;BME280;19509;43.862;26.176;2022-11-20T14:27:55;100392.16;;;8.43;94.73
33153;BME280;19509;43.862;26.176;2022-11-20T14:30:26;100411.31;;;8.40;94.42
33153;BME280;19509;43.862;26.176;2022-11-20T14:32:56;100424.66;;;8.34;95.12